sensor_id;sensor_type;location;lat;lon;timestamp;pressure;altitude;pressure_sealevel;temperature;humidity
55032;BME280;40928;51.076;7.950;2022-08-21T00:00:55;97242.22;;;12.94;91.25
55032;BME280;40928;51.076;7.950;2022-08-21T00:03:21;97248.34;;;12.89;91.46
55032;BME280;40928;51.076;7.950;2022-08-21T00:05:49;97250.69;;;12.86;91.54
55032;BME280;40928;51.076;7.950;2022-08-21T00:08:16;97247.13;;;12.80;91.73
55032;BME280;40928;51.076;7.950;2022-08-21T00:10:43;97251.38;;;12.76;91.84
55032;BME280;40928;51.076;7.950;2022-08-21T00:13:10;97241.72;;;12.75;91.88
55032;BME280;40928;51.076;7.950;2022-08-21T00:15:36;97248.19;;;12.79;91.54
55032;BME280;40928;51.076;7.950;2022-08-21T00:18:03;97240.41;;;12.77;91.43
55032;BME280;40928;51.076;7.950;2022-08-21T00:20:29;97238.78;;;12.76;91.24
55032;BME280;40928;51.076;7.950;2022-08-21T00:22:54;97248.13;;;12.74;91.20
55032;BME280;40928;51.076;7.950;2022-08-21T00:25:20;97245.13;;;12.70;90.93
55032;BME280;40928;51.076;7.950;2022-08-21T00:27:46;97241.06;;;12.68;90.80
55032;BME280;40928;51.076;7.950;2022-08-21T00:30:13;97243.66;;;12.62;90.82
55032;BME280;40928;51.076;7.950;2022-08-21T00:32:39;97242.56;;;12.58;90.94
55032;BME280;40928;51.076;7.950;2022-08-21T00:35:11;97244.09;;;12.54;90.86
55032;BME280;40928;51.076;7.950;2022-08-21T00:37:39;97243.78;;;12.51;90.93
55032;BME280;40928;51.076;7.950;2022-08-21T00:40:08;97241.84;;;12.46;91.30
55032;BME280;40928;51.076;7.950;2022-08-21T00:42:34;97240.78;;;12.47;91.29
55032;BME280;40928;51.076;7.950;2022-08-21T00:45:00;97235.41;;;12.47;91.04
55032;BME280;40928;51.076;7.950;2022-08-21T00:47:25;97234.88;;;12.45;91.17
55032;BME280;40928;51.076;7.950;2022-08-21T00:49:51;97227.31;;;12.42;91.26
55032;BME280;40928;51.076;7.950;2022-08-21T00:52:22;97228.59;;;12.39;90.91
55032;BME280;40928;51.076;7.950;2022-08-21T00:54:50;97225.41;;;12.37;90.75
55032;BME280;40928;51.076;7.950;2022-08-21T00:57:27;97229.28;;;12.29;91.11
55032;BME280;40928;51.076;7.950;2022-08-21T00:59:56;97223.59;;;12.26;91.15
55032;BME280;40928;51.076;7.950;2022-08-21T01:02:24;97226.53;;;12.24;91.12
55032;BME280;40928;51.076;7.950;2022-08-21T01:04:50;97226.91;;;12.16;91.65
55032;BME280;40928;51.076;7.950;2022-08-21T01:07:16;97220.47;;;12.12;91.56
55032;BME280;40928;51.076;7.950;2022-08-21T01:09:43;97221.50;;;12.11;91.69
55032;BME280;40928;51.076;7.950;2022-08-21T01:12:09;97214.75;;;12.08;91.47
55032;BME280;40928;51.076;7.950;2022-08-21T01:14:36;97220.63;;;12.05;91.62
55032;BME280;40928;51.076;7.950;2022-08-21T01:17:03;97220.84;;;12.03;91.84
55032;BME280;40928;51.076;7.950;2022-08-21T01:19:29;97220.78;;;11.98;91.89
55032;BME280;40928;51.076;7.950;2022-08-21T01:21:55;97219.13;;;11.97;91.67
55032;BME280;40928;51.076;7.950;2022-08-21T01:24:21;97220.66;;;11.93;91.81
55032;BME280;40928;51.076;7.950;2022-08-21T01:26:48;97216.94;;;11.94;91.66
55032;BME280;40928;51.076;7.950;2022-08-21T01:29:23;97211.25;;;11.91;92.11
55032;BME280;40928;51.076;7.950;2022-08-21T01:31:50;97212.53;;;11.88;91.79
55032;BME280;40928;51.076;7.950;2022-08-21T01:34:16;97215.38;;;11.81;92.21
55032;BME280;40928;51.076;7.950;2022-08-21T01:36:43;97212.47;;;11.83;91.97
55032;BME280;40928;51.076;7.950;2022-08-21T01:39:09;97212.94;;;11.80;92.09
55032;BME280;40928;51.076;7.950;2022-08-21T01:41:35;97217.47;;;11.79;91.90
55032;BME280;40928;51.076;7.950;2022-08-21T01:44:01;97213.75;;;11.80;91.84
55032;BME280;40928;51.076;7.950;2022-08-21T01:46:26;97215.84;;;11.78;91.94
55032;BME280;40928;51.076;7.950;2022-08-21T01:48:52;97215.63;;;11.80;91.72
55032;BME280;40928;51.076;7.950;2022-08-21T01:51:18;97211.81;;;11.76;91.83
55032;BME280;40928;51.076;7.950;2022-08-21T01:53:46;97210.19;;;11.75;91.81
55032;BME280;40928;51.076;7.950;2022-08-21T01:56:14;97215.44;;;11.69;92.01
55032;BME280;40928;51.076;7.950;2022-08-21T01:58:41;97211.72;;;11.70;92.04
55032;BME280;40928;51.076;7.950;2022-08-21T02:01:07;97220.78;;;11.69;91.86
55032;BME280;40928;51.076;7.950;2022-08-21T02:03:33;97219.16;;;11.68;91.97
55032;BME280;40928;51.076;7.950;2022-08-21T02:05:58;97216.47;;;11.68;92.08
55032;BME280;40928;51.076;7.950;2022-08-21T02:08:23;97214.88;;;11.67;91.95
55032;BME280;40928;51.076;7.950;2022-08-21T02:10:51;97210.59;;;11.66;92.02
55032;BME280;40928;51.076;7.950;2022-08-21T02:13:17;97214.88;;;11.67;91.86
55032;BME280;40928;51.076;7.950;2022-08-21T02:15:43;97207.09;;;11.66;91.96
55032;BME280;40928;51.076;7.950;2022-08-21T02:18:09;97207.56;;;11.63;91.75
55032;BME280;40928;51.076;7.950;2022-08-21T02:20:40;97206.97;;;11.61;92.01
55032;BME280;40928;51.076;7.950;2022-08-21T02:23:07;97209.34;;;11.57;92.23
55032;BME280;40928;51.076;7.950;2022-08-21T02:25:34;97202.84;;;11.53;92.30
55032;BME280;40928;51.076;7.950;2022-08-21T02:28:04;97199.28;;;11.47;92.56
55032;BME280;40928;51.076;7.950;2022-08-21T02:30:34;97193.13;;;11.47;92.47
55032;BME280;40928;51.076;7.950;2022-08-21T02:32:59;97192.53;;;11.45;92.65
55032;BME280;40928;51.076;7.950;2022-08-21T02:35:25;97193.13;;;11.47;92.58
55032;BME280;40928;51.076;7.950;2022-08-21T02:37:54;97190.44;;;11.47;92.78
55032;BME280;40928;51.076;7.950;2022-08-21T02:40:23;97191.25;;;11.47;92.75
55032;BME280;40928;51.076;7.950;2022-08-21T02:42:52;97201.72;;;11.49;92.86
55032;BME280;40928;51.076;7.950;2022-08-21T02:45:20;97190.19;;;11.48;92.58
55032;BME280;40928;51.076;7.950;2022-08-21T02:47:51;97200.09;;;11.48;92.63
55032;BME280;40928;51.076;7.950;2022-08-21T02:50:23;97196.03;;;11.45;92.55
55032;BME280;40928;51.076;7.950;2022-08-21T02:52:49;97178.84;;;11.41;92.81
55032;BME280;40928;51.076;7.950;2022-08-21T02:55:16;97197.78;;;11.39;93.24
55032;BME280;40928;51.076;7.950;2022-08-21T02:57:41;97193.75;;;11.37;93.00
55032;BME280;40928;51.076;7.950;2022-08-21T03:00:10;97196.41;;;11.37;93.18
55032;BME280;40928;51.076;7.950;2022-08-21T03:02:37;97202.03;;;11.35;93.27
55032;BME280;40928;51.076;7.950;2022-08-21T03:05:04;97195.84;;;11.35;93.10
55032;BME280;40928;51.076;7.950;2022-08-21T03:07:30;97195.03;;;11.34;93.53
55032;BME280;40928;51.076;7.950;2022-08-21T03:09:55;97192.13;;;11.36;93.46
55032;BME280;40928;51.076;7.950;2022-08-21T03:12:21;97193.16;;;11.35;93.29
55032;BME280;40928;51.076;7.950;2022-08-21T03:14:46;97192.13;;;11.36;93.42
55032;BME280;40928;51.076;7.950;2022-08-21T03:17:12;97183.19;;;11.30;93.68
55032;BME280;40928;51.076;7.950;2022-08-21T03:19:37;97192.16;;;11.24;94.12
55032;BME280;40928;51.076;7.950;2022-08-21T03:22:04;97186.81;;;11.24;93.91
55032;BME280;40928;51.076;7.950;2022-08-21T03:24:30;97193.00;;;11.24;94.14
55032;BME280;40928;51.076;7.950;2022-08-21T03:26:56;97197.63;;;11.29;94.40
55032;BME280;40928;51.076;7.950;2022-08-21T03:29:22;97193.91;;;11.30;94.60
55032;BME280;40928;51.076;7.950;2022-08-21T03:31:47;97185.28;;;11.28;94.78
55032;BME280;40928;51.076;7.950;2022-08-21T03:34:13;97191.94;;;11.25;94.94
55032;BME280;40928;51.076;7.950;2022-08-21T03:36:39;97186.34;;;11.27;95.05
55032;BME280;40928;51.076;7.950;2022-08-21T03:39:04;97183.66;;;11.27;95.33
55032;BME280;40928;51.076;7.950;2022-08-21T03:41:36;97191.47;;;11.29;95.42
55032;BME280;40928;51.076;7.950;2022-08-21T03:44:01;97186.91;;;11.29;95.41
55032;BME280;40928;51.076;7.950;2022-08-21T03:46:27;97193.91;;;11.30;95.33
55032;BME280;40928;51.076;7.950;2022-08-21T03:48:52;97186.44;;;11.32;95.18
55032;BME280;40928;51.076;7.950;2022-08-21T03:51:18;97189.69;;;11.34;95.04
55032;BME280;40928;51.076;7.950;2022-08-21T03:53:44;97190.66;;;11.28;95.38
55032;BME280;40928;51.076;7.950;2022-08-21T03:56:10;97195.75;;;11.30;95.24
55032;BME280;40928;51.076;7.950;2022-08-21T03:58:36;97190.66;;;11.28;95.35
55032;BME280;40928;51.076;7.950;2022-08-21T04:01:04;97190.66;;;11.28;95.43
55032;BME280;40928;51.076;7.950;2022-08-21T04:03:32;97197.38;;;11.31;95.11
55032;BME280;40928;51.076;7.950;2022-08-21T04:05:59;97201.66;;;11.32;95.00
55032;BME280;40928;51.076;7.950;2022-08-21T04:08:24;97204.13;;;11.33;95.04
55032;BME280;40928;51.076;7.950;2022-08-21T04:10:52;97208.88;;;11.31;95.39
55032;BME280;40928;51.076;7.950;2022-08-21T04:13:20;97206.44;;;11.30;95.46
55032;BME280;40928;51.076;7.950;2022-08-21T04:15:46;97211.09;;;11.34;96.19
55032;BME280;40928;51.076;7.950;2022-08-21T04:18:11;97213.50;;;11.36;96.19
55032;BME280;40928;51.076;7.950;2022-08-21T04:20:39;97208.00;;;11.42;96.36
55032;BME280;40928;51.076;7.950;2022-08-21T04:23:06;97211.59;;;11.48;96.20
55032;BME280;40928;51.076;7.950;2022-08-21T04:25:32;97196.44;;;11.54;96.09
55032;BME280;40928;51.076;7.950;2022-08-21T04:27:57;97207.25;;;11.59;96.01
55032;BME280;40928;51.076;7.950;2022-08-21T04:30:24;97204.56;;;11.59;95.93
55032;BME280;40928;51.076;7.950;2022-08-21T04:32:50;97202.94;;;11.58;96.85
55032;BME280;40928;51.076;7.950;2022-08-21T04:35:19;97208.06;;;11.60;96.59
55032;BME280;40928;51.076;7.950;2022-08-21T04:37:45;97210.50;;;11.61;96.53
55032;BME280;40928;51.076;7.950;2022-08-21T04:40:12;97212.13;;;11.62;96.77
55032;BME280;40928;51.076;7.950;2022-08-21T04:42:50;97216.47;;;11.68;96.64
55032;BME280;40928;51.076;7.950;2022-08-21T04:45:27;97219.72;;;11.70;96.97
55032;BME280;40928;51.076;7.950;2022-08-21T04:47:54;97213.09;;;11.73;96.75
55032;BME280;40928;51.076;7.950;2022-08-21T04:50:24;97222.97;;;11.72;97.01
55032;BME280;40928;51.076;7.950;2022-08-21T04:53:04;97222.75;;;11.74;96.98
55032;BME280;40928;51.076;7.950;2022-08-21T04:55:30;97223.56;;;11.75;97.41
55032;BME280;40928;51.076;7.950;2022-08-21T04:57:56;97223.88;;;11.78;97.47
55032;BME280;40928;51.076;7.950;2022-08-21T05:00:23;97220.72;;;11.81;97.40
55032;BME280;40928;51.076;7.950;2022-08-21T05:02:50;97228.03;;;11.86;97.31
55032;BME280;40928;51.076;7.950;2022-08-21T05:05:19;97226.75;;;11.88;97.46
55032;BME280;40928;51.076;7.950;2022-08-21T05:07:46;97221.72;;;11.92;97.24
55032;BME280;40928;51.076;7.950;2022-08-21T05:10:13;97232.50;;;11.97;97.21
55032;BME280;40928;51.076;7.950;2022-08-21T05:12:40;97230.63;;;11.98;97.40
55032;BME280;40928;51.076;7.950;2022-08-21T05:15:07;97226.94;;;11.99;97.52
55032;BME280;40928;51.076;7.950;2022-08-21T05:17:33;97227.03;;;12.04;97.65
55032;BME280;40928;51.076;7.950;2022-08-21T05:19:58;97228.13;;;12.08;97.82
55032;BME280;40928;51.076;7.950;2022-08-21T05:22:24;97231.16;;;12.12;97.74
55032;BME280;40928;51.076;7.950;2022-08-21T05:24:50;97224.50;;;12.14;97.69
55032;BME280;40928;51.076;7.950;2022-08-21T05:27:16;97225.88;;;12.17;97.75
55032;BME280;40928;51.076;7.950;2022-08-21T05:29:42;97233.19;;;12.22;97.68
55032;BME280;40928;51.076;7.950;2022-08-21T05:32:10;97227.09;;;12.26;97.90
55032;BME280;40928;51.076;7.950;2022-08-21T05:34:35;97238.91;;;12.30;97.73
55032;BME280;40928;51.076;7.950;2022-08-21T05:37:01;97242.16;;;12.32;97.88
55032;BME280;40928;51.076;7.950;2022-08-21T05:39:26;97239.50;;;12.32;97.98
55032;BME280;40928;51.076;7.950;2022-08-21T05:41:52;97233.56;;;12.30;98.34
55032;BME280;40928;51.076;7.950;2022-08-21T05:44:17;97236.59;;;12.34;98.56
55032;BME280;40928;51.076;7.950;2022-08-21T05:46:43;97233.97;;;12.39;98.47
55032;BME280;40928;51.076;7.950;2022-08-21T05:49:09;97242.34;;;12.43;98.42
55032;BME280;40928;51.076;7.950;2022-08-21T05:51:35;97238.63;;;12.44;98.47
55032;BME280;40928;51.076;7.950;2022-08-21T05:54:01;97238.63;;;12.44;99.03
55032;BME280;40928;51.076;7.950;2022-08-21T05:56:26;97239.66;;;12.43;99.07
55032;BME280;40928;51.076;7.950;2022-08-21T05:58:52;97233.78;;;12.46;99.18
55032;BME280;40928;51.076;7.950;2022-08-21T06:01:17;97234.13;;;12.49;99.17
55032;BME280;40928;51.076;7.950;2022-08-21T06:03:43;97226.41;;;12.53;99.32
55032;BME280;40928;51.076;7.950;2022-08-21T06:06:09;97230.78;;;12.59;99.36
55032;BME280;40928;51.076;7.950;2022-08-21T06:08:35;97223.38;;;12.67;99.01
55032;BME280;40928;51.076;7.950;2022-08-21T06:11:02;97231.00;;;12.75;98.69
55032;BME280;40928;51.076;7.950;2022-08-21T06:13:28;97231.88;;;12.81;98.65
55032;BME280;40928;51.076;7.950;2022-08-21T06:16:11;97227.97;;;12.88;98.97
55032;BME280;40928;51.076;7.950;2022-08-21T06:18:38;97226.72;;;12.96;98.89
55032;BME280;40928;51.076;7.950;2022-08-21T06:21:04;97234.06;;;13.06;98.53
55032;BME280;40928;51.076;7.950;2022-08-21T06:23:30;97237.13;;;13.15;98.35
55032;BME280;40928;51.076;7.950;2022-08-21T06:25:56;97232.69;;;13.25;98.30
55032;BME280;40928;51.076;7.950;2022-08-21T06:28:21;97230.13;;;13.36;98.17
55032;BME280;40928;51.076;7.950;2022-08-21T06:30:47;97230.00;;;13.48;98.42
55032;BME280;40928;51.076;7.950;2022-08-21T06:33:13;97232.81;;;13.58;98.32
55032;BME280;40928;51.076;7.950;2022-08-21T06:35:38;97233.44;;;13.70;98.06
55032;BME280;40928;51.076;7.950;2022-08-21T06:38:04;97226.03;;;13.83;97.64
55032;BME280;40928;51.076;7.950;2022-08-21T06:40:30;97232.06;;;13.95;97.44
55032;BME280;40928;51.076;7.950;2022-08-21T06:46:43;97221.31;;;14.28;96.63
55032;BME280;40928;51.076;7.950;2022-08-21T06:49:08;97225.16;;;14.42;96.54
55032;BME280;40928;51.076;7.950;2022-08-21T06:55:21;97210.25;;;14.67;95.86
55032;BME280;40928;51.076;7.950;2022-08-21T07:01:34;97218.50;;;14.98;95.07
55032;BME280;40928;51.076;7.950;2022-08-21T07:03:59;97218.56;;;15.14;94.92
55032;BME280;40928;51.076;7.950;2022-08-21T07:06:25;97220.25;;;15.25;94.30
55032;BME280;40928;51.076;7.950;2022-08-21T07:08:51;97208.97;;;15.38;93.87
55032;BME280;40928;51.076;7.950;2022-08-21T07:11:21;97211.69;;;15.54;92.88
55032;BME280;40928;51.076;7.950;2022-08-21T07:13:48;97217.09;;;15.70;92.25
55032;BME280;40928;51.076;7.950;2022-08-21T07:16:15;97209.88;;;15.86;91.58
55032;BME280;40928;51.076;7.950;2022-08-21T07:18:41;97214.75;;;16.09;90.03
55032;BME280;40928;51.076;7.950;2022-08-21T07:21:07;97212.28;;;16.23;89.37
55032;BME280;40928;51.076;7.950;2022-08-21T07:23:38;97213.34;;;16.43;89.62
55032;BME280;40928;51.076;7.950;2022-08-21T07:26:05;97211.41;;;16.64;88.63
55032;BME280;40928;51.076;7.950;2022-08-21T07:28:31;97204.91;;;16.81;87.41
55032;BME280;40928;51.076;7.950;2022-08-21T07:30:59;97216.75;;;16.95;86.66
55032;BME280;40928;51.076;7.950;2022-08-21T07:33:27;97211.84;;;17.08;86.14
55032;BME280;40928;51.076;7.950;2022-08-21T07:35:53;97211.75;;;17.28;85.10
55032;BME280;40928;51.076;7.950;2022-08-21T07:38:19;97221.38;;;17.45;82.21
55032;BME280;40928;51.076;7.950;2022-08-21T07:40:46;97221.06;;;17.57;78.53
55032;BME280;40928;51.076;7.950;2022-08-21T07:43:12;97215.91;;;17.60;69.84
55032;BME280;40928;51.076;7.950;2022-08-21T07:45:37;97224.78;;;17.66;70.13
55032;BME280;40928;51.076;7.950;2022-08-21T07:48:04;97215.81;;;17.76;68.67
55032;BME280;40928;51.076;7.950;2022-08-21T07:50:29;97212.25;;;17.80;67.82
55032;BME280;40928;51.076;7.950;2022-08-21T07:52:55;97212.69;;;17.93;66.42
55032;BME280;40928;51.076;7.950;2022-08-21T07:55:23;97211.59;;;17.99;65.50
55032;BME280;40928;51.076;7.950;2022-08-21T07:57:49;97212.97;;;17.96;63.65
55032;BME280;40928;51.076;7.950;2022-08-21T08:00:17;97218.63;;;17.95;64.24
55032;BME280;40928;51.076;7.950;2022-08-21T08:02:48;97207.28;;;17.98;64.88
55032;BME280;40928;51.076;7.950;2022-08-21T08:05:21;97213.69;;;18.07;65.19
55032;BME280;40928;51.076;7.950;2022-08-21T08:07:50;97207.06;;;18.24;64.12
55032;BME280;40928;51.076;7.950;2022-08-21T08:10:16;97194.97;;;18.46;63.21
55032;BME280;40928;51.076;7.950;2022-08-21T08:12:43;97204.25;;;18.64;61.43
55032;BME280;40928;51.076;7.950;2022-08-21T08:15:12;97202.13;;;18.85;61.25
55032;BME280;40928;51.076;7.950;2022-08-21T08:17:39;97202.72;;;18.82;61.10
55032;BME280;40928;51.076;7.950;2022-08-21T08:20:06;97203.66;;;18.96;60.34
55032;BME280;40928;51.076;7.950;2022-08-21T08:22:34;97206.81;;;19.04;61.35
55032;BME280;40928;51.076;7.950;2022-08-21T08:25:03;97204.78;;;19.14;61.33
55032;BME280;40928;51.076;7.950;2022-08-21T08:27:29;97209.50;;;19.28;59.98
55032;BME280;40928;51.076;7.950;2022-08-21T08:29:55;97203.88;;;19.43;59.70
55032;BME280;40928;51.076;7.950;2022-08-21T08:32:22;97211.34;;;19.52;57.11
55032;BME280;40928;51.076;7.950;2022-08-21T08:34:49;97207.31;;;19.30;57.48
55032;BME280;40928;51.076;7.950;2022-08-21T08:37:17;97208.91;;;19.31;57.76
55032;BME280;40928;51.076;7.950;2022-08-21T08:39:43;97213.38;;;19.41;57.78
55032;BME280;40928;51.076;7.950;2022-08-21T08:55:40;97188.19;;;19.78;55.64
55032;BME280;40928;51.076;7.950;2022-08-21T09:08:54;97189.84;;;20.46;54.66
55032;BME280;40928;51.076;7.950;2022-08-21T09:11:30;97185.28;;;20.41;54.37
55032;BME280;40928;51.076;7.950;2022-08-21T09:20:44;97193.81;;;20.81;55.00
55032;BME280;40928;51.076;7.950;2022-08-21T09:31:21;97181.88;;;20.49;55.08
55032;BME280;40928;51.076;7.950;2022-08-21T09:33:46;97187.31;;;20.63;54.28
55032;BME280;40928;51.076;7.950;2022-08-21T09:36:24;97178.00;;;20.97;54.73
55032;BME280;40928;51.076;7.950;2022-08-21T09:38:53;97176.38;;;21.10;52.68
55032;BME280;40928;51.076;7.950;2022-08-21T09:41:29;97169.25;;;21.14;52.56
55032;BME280;40928;51.076;7.950;2022-08-21T09:43:56;97171.28;;;21.09;51.91
55032;BME280;40928;51.076;7.950;2022-08-21T09:46:24;97170.22;;;21.19;51.64
55032;BME280;40928;51.076;7.950;2022-08-21T09:48:53;97173.16;;;21.08;51.82
55032;BME280;40928;51.076;7.950;2022-08-21T09:51:29;97172.41;;;21.44;51.59
55032;BME280;40928;51.076;7.950;2022-08-21T09:54:00;97164.19;;;21.95;48.97
55032;BME280;40928;51.076;7.950;2022-08-21T09:56:39;97165.75;;;22.19;48.80
55032;BME280;40928;51.076;7.950;2022-08-21T09:59:30;97160.59;;;22.72;47.57
55032;BME280;40928;51.076;7.950;2022-08-21T10:01:59;97157.66;;;23.17;46.38
55032;BME280;40928;51.076;7.950;2022-08-21T10:04:32;97164.44;;;23.37;44.14
55032;BME280;40928;51.076;7.950;2022-08-21T10:07:09;97155.31;;;23.33;43.91
55032;BME280;40928;51.076;7.950;2022-08-21T10:09:35;97156.34;;;23.06;43.87
55032;BME280;40928;51.076;7.950;2022-08-21T10:12:24;97169.78;;;22.44;46.20
55032;BME280;40928;51.076;7.950;2022-08-21T10:20:06;97150.19;;;23.23;43.92
55032;BME280;40928;51.076;7.950;2022-08-21T10:22:40;97152.19;;;24.31;41.95
55032;BME280;40928;51.076;7.950;2022-08-21T10:25:19;97150.63;;;24.60;39.53
55032;BME280;40928;51.076;7.950;2022-08-21T10:47:08;97128.53;;;26.81;35.96
55032;BME280;40928;51.076;7.950;2022-08-21T11:00:49;97132.44;;;27.46;34.05
55032;BME280;40928;51.076;7.950;2022-08-21T11:03:29;97119.81;;;27.16;35.25
55032;BME280;40928;51.076;7.950;2022-08-21T11:06:07;97133.81;;;27.40;35.22
55032;BME280;40928;51.076;7.950;2022-08-21T11:08:44;97130.38;;;27.84;34.32
55032;BME280;40928;51.076;7.950;2022-08-21T11:11:34;97112.47;;;28.18;33.79
55032;BME280;40928;51.076;7.950;2022-08-21T11:14:08;97124.53;;;28.62;32.49
55032;BME280;40928;51.076;7.950;2022-08-21T11:16:48;97128.59;;;28.84;31.56
55032;BME280;40928;51.076;7.950;2022-08-21T11:19:24;97125.56;;;29.41;31.71
55032;BME280;40928;51.076;7.950;2022-08-21T11:25:14;97121.47;;;30.36;29.08
55032;BME280;40928;51.076;7.950;2022-08-21T11:27:50;97109.97;;;30.77;29.29
55032;BME280;40928;51.076;7.950;2022-08-21T11:30:18;97117.94;;;30.36;28.66
55032;BME280;40928;51.076;7.950;2022-08-21T11:46:00;97111.16;;;31.07;28.01
55032;BME280;40928;51.076;7.950;2022-08-21T11:49:03;97107.84;;;30.20;27.79
55032;BME280;40928;51.076;7.950;2022-08-21T11:58:25;97104.03;;;30.29;28.89
55032;BME280;40928;51.076;7.950;2022-08-21T12:00:59;97113.50;;;30.08;29.35
55032;BME280;40928;51.076;7.950;2022-08-21T12:03:51;97106.34;;;30.27;28.57
55032;BME280;40928;51.076;7.950;2022-08-21T12:06:32;97098.78;;;30.20;29.15
55032;BME280;40928;51.076;7.950;2022-08-21T12:09:28;97091.97;;;30.60;29.22
55032;BME280;40928;51.076;7.950;2022-08-21T12:17:07;97098.16;;;29.09;28.85
55032;BME280;40928;51.076;7.950;2022-08-21T12:19:33;97098.13;;;28.25;29.45
55032;BME280;40928;51.076;7.950;2022-08-21T12:24:50;97098.81;;;28.54;29.08
55032;BME280;40928;51.076;7.950;2022-08-21T12:30:05;97093.94;;;29.15;28.39
55032;BME280;40928;51.076;7.950;2022-08-21T12:32:43;97099.03;;;29.32;29.81
55032;BME280;40928;51.076;7.950;2022-08-21T12:35:21;97097.56;;;28.67;29.38
55032;BME280;40928;51.076;7.950;2022-08-21T12:40:39;97087.25;;;28.13;30.23
55032;BME280;40928;51.076;7.950;2022-08-21T12:43:05;97087.16;;;28.25;29.90
55032;BME280;40928;51.076;7.950;2022-08-21T12:45:41;97086.13;;;28.01;29.31
55032;BME280;40928;51.076;7.950;2022-08-21T12:48:28;97083.97;;;27.78;30.26
55032;BME280;40928;51.076;7.950;2022-08-21T12:51:09;97081.16;;;27.91;30.23
55032;BME280;40928;51.076;7.950;2022-08-21T12:53:48;97075.94;;;28.02;30.66
55032;BME280;40928;51.076;7.950;2022-08-21T12:56:17;97082.91;;;28.11;30.30
55032;BME280;40928;51.076;7.950;2022-08-21T12:58:54;97077.56;;;28.19;29.76
55032;BME280;40928;51.076;7.950;2022-08-21T13:01:23;97070.34;;;27.82;30.38
55032;BME280;40928;51.076;7.950;2022-08-21T13:03:52;97087.00;;;28.05;30.12
55032;BME280;40928;51.076;7.950;2022-08-21T13:06:20;97075.06;;;27.41;30.67
55032;BME280;40928;51.076;7.950;2022-08-21T13:08:47;97081.25;;;27.38;30.94
55032;BME280;40928;51.076;7.950;2022-08-21T13:11:18;97083.81;;;27.18;30.75
55032;BME280;40928;51.076;7.950;2022-08-21T13:13:49;97070.69;;;27.24;31.21
55032;BME280;40928;51.076;7.950;2022-08-21T13:16:20;97081.72;;;27.40;31.54
55032;BME280;40928;51.076;7.950;2022-08-21T13:19:07;97077.16;;;26.78;30.51
55032;BME280;40928;51.076;7.950;2022-08-21T13:21:42;97077.28;;;26.82;31.72
55032;BME280;40928;51.076;7.950;2022-08-21T13:24:46;97080.59;;;26.63;32.68
55032;BME280;40928;51.076;7.950;2022-08-21T13:27:22;97070.09;;;26.40;32.21
55032;BME280;40928;51.076;7.950;2022-08-21T13:30:12;97067.00;;;26.54;32.64
55032;BME280;40928;51.076;7.950;2022-08-21T13:32:50;97066.88;;;26.25;32.82
55032;BME280;40928;51.076;7.950;2022-08-21T13:35:24;97063.69;;;26.11;31.58
55032;BME280;40928;51.076;7.950;2022-08-21T13:37:51;97063.00;;;26.14;32.49
55032;BME280;40928;51.076;7.950;2022-08-21T13:40:22;97076.34;;;26.28;32.99
55032;BME280;40928;51.076;7.950;2022-08-21T13:42:49;97068.13;;;26.16;31.93
55032;BME280;40928;51.076;7.950;2022-08-21T13:45:21;97066.78;;;26.22;31.81
55032;BME280;40928;51.076;7.950;2022-08-21T13:47:47;97058.00;;;26.28;31.35
55032;BME280;40928;51.076;7.950;2022-08-21T13:50:14;97057.91;;;25.91;32.47
55032;BME280;40928;51.076;7.950;2022-08-21T13:52:54;97064.19;;;25.92;32.94
55032;BME280;40928;51.076;7.950;2022-08-21T13:55:20;97060.63;;;25.79;32.95
55032;BME280;40928;51.076;7.950;2022-08-21T13:57:46;97059.63;;;25.96;33.25
55032;BME280;40928;51.076;7.950;2022-08-21T14:00:17;97050.00;;;26.11;32.75
55032;BME280;40928;51.076;7.950;2022-08-21T14:02:46;97049.78;;;26.28;32.23
55032;BME280;40928;51.076;7.950;2022-08-21T14:05:34;97058.22;;;26.23;30.21
55032;BME280;40928;51.076;7.950;2022-08-21T14:10:35;97053.69;;;25.94;28.87
55032;BME280;40928;51.076;7.950;2022-08-21T14:13:03;97048.81;;;25.99;30.51
55032;BME280;40928;51.076;7.950;2022-08-21T14:15:32;97046.41;;;25.98;30.95
55032;BME280;40928;51.076;7.950;2022-08-21T14:18:18;97050.06;;;25.90;31.58
55032;BME280;40928;51.076;7.950;2022-08-21T14:24:39;97046.59;;;25.80;31.64
55032;BME280;40928;51.076;7.950;2022-08-21T14:27:06;97046.75;;;25.84;32.67
55032;BME280;40928;51.076;7.950;2022-08-21T14:29:38;97049.91;;;25.86;31.81
55032;BME280;40928;51.076;7.950;2022-08-21T14:32:14;97036.84;;;25.92;32.63
55032;BME280;40928;51.076;7.950;2022-08-21T14:37:14;97043.88;;;25.93;32.63
55032;BME280;40928;51.076;7.950;2022-08-21T14:39:39;97038.28;;;25.89;32.25
55032;BME280;40928;51.076;7.950;2022-08-21T14:42:05;97035.06;;;25.62;33.65
55032;BME280;40928;51.076;7.950;2022-08-21T14:44:30;97037.69;;;25.71;33.82
55032;BME280;40928;51.076;7.950;2022-08-21T14:46:59;97044.50;;;25.65;33.72
55032;BME280;40928;51.076;7.950;2022-08-21T14:49:26;97042.94;;;25.43;33.66
55032;BME280;40928;51.076;7.950;2022-08-21T14:51:54;97045.19;;;25.41;33.58
55032;BME280;40928;51.076;7.950;2022-08-21T14:54:27;97046.97;;;25.45;33.96
55032;BME280;40928;51.076;7.950;2022-08-21T14:56:53;97046.19;;;25.57;34.00
55032;BME280;40928;51.076;7.950;2022-08-21T14:59:20;97043.59;;;25.61;33.53
55032;BME280;40928;51.076;7.950;2022-08-21T15:01:46;97041.19;;;25.59;33.45
55032;BME280;40928;51.076;7.950;2022-08-21T15:04:11;97040.09;;;25.73;34.14
55032;BME280;40928;51.076;7.950;2022-08-21T15:06:37;97044.19;;;25.66;33.72
55032;BME280;40928;51.076;7.950;2022-08-21T15:09:02;97045.09;;;25.71;33.71
55032;BME280;40928;51.076;7.950;2022-08-21T15:11:30;97041.06;;;25.56;33.06
55032;BME280;40928;51.076;7.950;2022-08-21T15:14:00;97031.81;;;25.48;33.02
55032;BME280;40928;51.076;7.950;2022-08-21T15:16:28;97040.69;;;25.45;33.25
55032;BME280;40928;51.076;7.950;2022-08-21T15:18:55;97042.28;;;25.46;33.55
55032;BME280;40928;51.076;7.950;2022-08-21T15:21:24;97041.09;;;25.34;33.38